Flight Track Log - Related Links

Times and Time Zones

All times are in EDT time to prevent confusion due to time zone crossing. See the SWA2224 flight status page for this flight to view local times or setup timezone preferences in your user account.

Time Position Orientation Groundspeed Altitude Reporting Facility
EDT Latitude Longitude Course Direction KTS MPH feet Rate Location/Type
Sat 06:17:55 PM 38.7000 -90.2833 235° Southwest 203 234 3,100  Level Gateway (St. Louis) TRACON
Sat 06:18:19 PM 38.6847 -90.2867 190° South 218 251 4,400 2,471 Climbing Kansas City Center
Sat 06:19:20 PM 38.6414 -90.3600 233° Southwest 244 281 6,600 2,634 Climbing Kansas City Center
Sat 06:20:22 PM 38.5944 -90.4464 235° Southwest 280 322 9,800 2,585 Climbing Kansas City Center
Sat 06:21:23 PM 38.5400 -90.5433 234° Southwest 329 379 11,900 2,607 Climbing Kansas City Center
Sat 06:22:24 PM 38.4775 -90.6575 235° Southwest 368 423 15,100 2,927 Climbing Kansas City Center
Sat 06:23:00 PM 38.3608 -90.8207 235° Southwest  Level FlightAware Approximate
Sat 06:23:26 PM 38.4194 -90.7603 234° Southwest 376 433 17,900  Level Kansas City Center
Sat 06:24:27 PM 38.3558 -90.8739 234° Southwest 389 448 20,300 2,146 Climbing Kansas City Center
Sat 06:25:29 PM 38.2881 -90.9881 233° Southwest 402 463 22,300 1,854 Climbing Kansas City Center
Sat 06:26:30 PM 38.1925 -91.0711 214° Southwest 413 475 24,100 1,918 Climbing Kansas City Center
Sat 06:27:31 PM 38.0883 -91.1631 215° Southwest 419 482 26,200 1,805 Climbing Kansas City Center
Sat 06:28:33 PM 37.9928 -91.2569 218° Southwest 429 494 27,800 1,463 Climbing Kansas City Center
Sat 06:29:34 PM 37.9022 -91.3761 226° Southwest 460 529 29,200 1,415 Climbing Kansas City Center
Sat 06:30:36 PM 37.8122 -91.4983 227° Southwest 468 539 30,700 1,561 Climbing Kansas City Center
Sat 06:31:37 PM 37.7197 -91.6206 226° Southwest 473 544 32,400 1,707 Climbing Kansas City Center
Sat 06:32:39 PM 37.6300 -91.7372 226° Southwest 465 535 34,200 1,610 Climbing Kansas City Center
Sat 06:33:40 PM 37.5214 -91.8692 224° Southwest 451 519 35,700 885 Climbing Kansas City Center
Sat 06:34:41 PM 37.4281 -91.9797 223° Southwest 453 521 36,000 146 Climbing Kansas City Center
Sat 06:35:43 PM 37.3342 -92.0908 223° Southwest 458 527 36,000  Level Kansas City Center
Sat 06:36:44 PM 37.2383 -92.2006 222° Southwest 460 529 36,000  Level Kansas City Center
Sat 06:37:46 PM 37.1492 -92.3158 226° Southwest 454 522 36,000  Level Kansas City Center
Sat 06:38:47 PM 37.0686 -92.4425 231° Southwest 456 525 36,000  Level Kansas City Center
Sat 06:39:49 PM 36.9878 -92.5681 231° Southwest 458 527 36,000  Level Kansas City Center
Sat 06:40:50 PM 36.8942 -92.6731 222° Southwest 455 524 36,000  Level Kansas City Center
Sat 06:41:52 PM 36.7978 -92.7747 220° Southwest 453 521 36,000  Level Kansas City Center
Sat 06:42:44 PM 36.7044 -92.8803 222° Southwest 455 524 36,000  Level Memphis Center
Sat 06:43:44 PM 36.6086 -92.9806 220° Southwest 450 518 36,000  Level Memphis Center
Sat 06:44:44 PM 36.5144 -93.0861 222° Southwest 450 518 36,000  Level Memphis Center
Sat 06:45:44 PM 36.4183 -93.1858 220° Southwest 450 518 36,000  Level Memphis Center
Sat 06:46:44 PM 36.3244 -93.2858 221° Southwest 450 518 36,000  Level Memphis Center
Sat 06:47:44 PM 36.2303 -93.3878 221° Southwest 450 518 36,000  Level Memphis Center
Sat 06:48:44 PM 36.1319 -93.4897 220° Southwest 450 518 36,000  Level Memphis Center
Sat 06:49:44 PM 36.0375 -93.5939 222° Southwest 450 518 36,000  Level Memphis Center
Sat 06:50:44 PM 35.9411 -93.6925 220° Southwest 450 518 36,000  Level Memphis Center
Sat 06:51:44 PM 35.8444 -93.7936 220° Southwest 450 518 36,000  Level Memphis Center
Sat 06:52:44 PM 35.7519 -93.8922 221° Southwest 445 512 36,000  Level Memphis Center
Sat 06:53:44 PM 35.6575 -93.9878 219° Southwest 445 512 36,000  Level Memphis Center
Sat 06:54:44 PM 35.5669 -94.0858 221° Southwest 445 512 36,000  Level Memphis Center
Sat 06:55:44 PM 35.4703 -94.1836 219° Southwest 450 518 36,000  Level Memphis Center
Sat 06:56:44 PM 35.3775 -94.2786 220° Southwest 450 518 36,000  Level Memphis Center
Sat 06:58:39 PM 35.1769 -94.4342 212° Southwest 447 514 36,000  Level Fort Worth Center
Sat 06:59:39 PM 35.0725 -94.5142 212° Southwest 453 521 36,000  Level Fort Worth Center
Sat 07:00:39 PM 34.9639 -94.5964 212° Southwest 458 527 36,000 -400 Level Fort Worth Center
Sat 07:01:39 PM 34.8675 -94.6728 213° Southwest 464 534 35,200 -850 Descending Fort Worth Center
Sat 07:02:39 PM 34.7628 -94.7494 211° Southwest 464 534 34,300 -1,400 Descending Fort Worth Center
Sat 07:03:39 PM 34.6600 -94.8308 213° Southwest 453 521 32,400 -1,150 Descending Fort Worth Center
Sat 07:04:39 PM 34.5572 -94.9072 211° Southwest 447 514 32,000 -200 Descending Fort Worth Center
Sat 07:05:39 PM 34.4503 -94.9858 211° Southwest 452 520 32,000  Level Fort Worth Center
Sat 07:06:39 PM 34.3414 -95.0669 212° Southwest 452 520 32,000 -450 Level Fort Worth Center
Sat 07:07:39 PM 34.2406 -95.1425 212° Southwest 452 520 31,100 -900 Descending Fort Worth Center
Sat 07:08:39 PM 34.1417 -95.2178 212° Southwest 440 506 30,200 -550 Descending Fort Worth Center
Sat 07:09:39 PM 34.0408 -95.2931 212° Southwest 435 501 30,000 -100 Descending Fort Worth Center
Sat 07:10:39 PM 33.9356 -95.3708 212° Southwest 435 501 30,000  Level Fort Worth Center
Sat 07:11:39 PM 33.8303 -95.4456 211° Southwest 435 501 30,000  Level Fort Worth Center
Sat 07:12:39 PM 33.7292 -95.5203 212° Southwest 435 501 30,000  Level Fort Worth Center
Sat 07:13:39 PM 33.6258 -95.5950 211° Southwest 435 501 30,000 -950 Level Fort Worth Center
Sat 07:14:39 PM 33.5186 -95.6744 212° Southwest 429 494 28,100 -1,000 Descending Fort Worth Center
Sat 07:15:39 PM 33.4089 -95.7511 210° Southwest 444 511 28,000 -50 Descending Fort Worth Center
Sat 07:16:39 PM 33.3014 -95.8303 212° Southwest 454 522 28,000  Level Fort Worth Center
Sat 07:17:39 PM 33.1981 -95.9042 211° Southwest 449 517 28,000  Level Fort Worth Center
Sat 07:18:39 PM 33.0925 -95.9828 212° Southwest 449 517 28,000  Level Fort Worth Center
Sat 07:19:39 PM 32.9889 -96.0561 211° Southwest 449 517 28,000  Level Fort Worth Center
Sat 07:20:39 PM 32.8936 -96.1244 211° Southwest 449 517 28,000  Level Fort Worth Center
Sat 07:21:39 PM 32.7756 -96.2103 211° Southwest 449 517 28,000  Level Fort Worth Center
Sat 07:22:39 PM 32.6800 -96.2781 211° Southwest 449 517 28,000  Level Fort Worth Center
Sat 07:23:39 PM 32.5639 -96.3608 211° Southwest 449 517 28,000  Level Fort Worth Center
Sat 07:24:39 PM 32.4683 -96.4283 211° Southwest 449 517 28,000  Level Fort Worth Center
Sat 07:25:39 PM 32.3500 -96.5108 211° Southwest 449 517 28,000  Level Fort Worth Center
Sat 07:26:39 PM 32.2564 -96.5756 210° Southwest 444 511 28,000  Level Fort Worth Center
Sat 07:27:39 PM 32.1400 -96.6600 212° Southwest 450 518 28,000  Level Fort Worth Center
Sat 07:28:39 PM 32.0342 -96.7322 210° Southwest 450 518 28,000  Level Fort Worth Center
Sat 07:29:39 PM 31.9300 -96.8064 211° Southwest 445 512 28,000  Level Fort Worth Center
Sat 07:30:39 PM 31.8258 -96.8756 209° Southwest 445 512 28,000  Level Fort Worth Center
Sat 07:31:39 PM 31.7197 -96.9494 211° Southwest 445 512 28,000  Level Fort Worth Center
Sat 07:32:39 PM 31.6178 -97.0231 212° Southwest 445 512 28,000  Level Fort Worth Center
Sat 07:33:23 PM 31.5464 -97.0714 210° Southwest 434 499 28,000  Level Houston Center
Sat 07:34:24 PM 31.4292 -97.1228 201° Southwest 446 513 28,000  Level Houston Center
Sat 07:35:26 PM 31.3131 -97.1756 201° Southwest 444 511 28,000  Level Houston Center
Sat 07:36:28 PM 31.2000 -97.2322 203° Southwest 439 505 28,000  Level Houston Center
Sat 07:37:29 PM 31.0869 -97.2883 203° Southwest 439 505 28,000 -98 Level Houston Center
Sat 07:38:31 PM 30.9731 -97.3425 202° Southwest 442 509 27,800 -683 Descending Houston Center
Sat 07:39:32 PM 30.8444 -97.4058 203° Southwest 441 507 26,600 -1,073 Descending Houston Center
Sat 07:40:34 PM 30.7336 -97.4592 202° Southwest 432 497 25,600 -1,016 Descending Houston Center
Sat 07:41:36 PM 30.6239 -97.5125 203° Southwest 425 489 24,500 -976 Descending Houston Center
Sat 07:42:37 PM 30.5142 -97.5658 203° Southwest 423 487 23,600 -927 Descending Houston Center
Sat 07:43:39 PM 30.4036 -97.6186 202° Southwest 425 489 22,600 -1,024 Descending Houston Center
Sat 07:44:40 PM 30.2942 -97.6717 203° Southwest 424 488 21,500 -1,415 Descending Houston Center
Sat 07:45:42 PM 30.1914 -97.7217 203° Southwest 401 461 19,700 -2,129 Descending Houston Center
Sat 07:46:44 PM 30.0806 -97.7744 202° Southwest 368 423 17,100 -2,331 Descending Houston Center
Sat 07:47:43 PM 29.9872 -97.8192 203° Southwest 354 407 15,000 -2,000 Descending Houston Center
Sat 07:48:47 PM 29.8997 -97.8639 204° Southwest 346 398 13,000 -1,826 Descending Houston Center
Sat 07:49:38 PM 29.8606 -97.9461 241° Southwest 310 357 11,500 -1,554 Descending Houston Center
Sat 07:50:39 PM 29.8267 -98.0297 245° Southwest 290 334 10,100 -1,574 Descending Houston Center
Sat 07:51:40 PM 29.7942 -98.1086 245° Southwest 263 303 8,300 -1,862 Descending Houston Center
Sat 07:52:35 PM 29.7542 -98.1736 235° Southwest 275 316 6,500 -1,890 Descending Houston Center
Sat 07:52:53 PM 29.7333 -98.1886 212° Southwest 285 328 6,000 -500 Descending Houston Center
Sat 07:53:35 PM 29.6894 -98.2225 214° Southwest 280 322 6,000  Level Houston Center
Sat 07:53:55 PM 29.6700 -98.2369 213° Southwest 274 315 6,000 -684 Level Houston Center
Sat 07:54:54 PM 29.6089 -98.2828 213° Southwest 262 302 5,100 -579 Descending Houston Center
Sat 07:55:49 PM 29.5597 -98.3200 213° Southwest 218 251 4,900 -730 Descending Houston Center
Sat 07:56:49 PM 29.5231 -98.3533 218° Southwest 144 166 3,700 -1,252 Descending Houston Center
Sat 07:57:44 PM 29.4986 -98.3853 229° Southwest 128 147 2,500 -1,167 Descending Houston Center
Sat 07:58:01 PM 29.4956 -98.3953 251° West 140 161 2,300 -700 Descending Houston Center
Sat 07:58:44 PM 29.5008 -98.4306 280° West 146 168 1,800 -677 Descending Houston Center
Sat 07:59:03 PM 29.5067 -98.4392 308° West 150 173 1,600 -750 Descending Houston Center
Sat 08:00:04 PM 29.5322 -98.4706 313° West 146 168 800 -787 Descending Houston Center

Login

Don't have an account? Register now (free) for customized features, flight alerts, and more!